createdAt,value
2018-03-22T00:00:02.387Z,40.73
2018-03-22T00:02:29.920Z,35.67
2018-03-22T00:04:58.198Z,45.17
2018-03-22T00:07:26.510Z,34.60
2018-03-22T00:09:54.066Z,38.70
2018-03-22T00:12:22.553Z,36.67
2018-03-22T00:14:50.115Z,37.30
2018-03-22T00:17:18.890Z,37.77
2018-03-22T00:19:46.426Z,36.10
2018-03-22T00:22:26.625Z,37.17
2018-03-22T00:24:54.160Z,37.33
2018-03-22T00:27:22.271Z,38.13
2018-03-22T00:29:49.797Z,38.67
2018-03-22T00:32:17.357Z,36.03
2018-03-22T00:34:44.905Z,36.93
2018-03-22T00:37:12.786Z,42.97
2018-03-22T00:39:40.721Z,32.80
2018-03-22T00:42:09.032Z,36.03
2018-03-22T00:44:36.985Z,32.77
2018-03-22T00:47:05.434Z,35.43
2018-03-22T00:49:32.954Z,32.73
2018-03-22T00:52:00.755Z,36.90
2018-03-22T00:54:29.028Z,30.20
2018-03-22T00:56:56.566Z,33.33
2018-03-22T00:59:24.076Z,31.67
2018-03-22T01:01:53.069Z,32.70
2018-03-22T01:04:21.405Z,28.73
2018-03-22T01:06:48.938Z,26.80
2018-03-22T01:09:16.449Z,27.73
2018-03-22T01:11:44.669Z,31.47
2018-03-22T01:14:16.436Z,25.97
2018-03-22T01:16:43.976Z,25.80
2018-03-22T01:19:11.481Z,25.90
2018-03-22T01:21:39.029Z,24.10
2018-03-22T01:24:06.560Z,28.93
2018-03-22T01:26:34.062Z,25.57
2018-03-22T01:29:01.610Z,27.10
2018-03-22T01:31:30.129Z,27.57
2018-03-22T01:33:58.431Z,24.73
2018-03-22T01:36:25.992Z,27.63
2018-03-22T01:38:53.550Z,23.03
2018-03-22T01:41:21.084Z,23.83
2018-03-22T01:43:49.362Z,29.27
2018-03-22T01:46:21.534Z,25.30
2018-03-22T01:48:49.816Z,23.43
2018-03-22T01:51:18.103Z,27.10
2018-03-22T01:53:45.637Z,28.57
2018-03-22T01:56:17.015Z,25.70
2018-03-22T01:58:48.474Z,26.50
2018-03-22T02:01:16.008Z,25.73
2018-03-22T02:03:44.318Z,25.00
2018-03-22T02:06:12.149Z,28.37
2018-03-22T02:08:40.444Z,25.10
2018-03-22T02:11:07.957Z,25.53
2018-03-22T02:13:39.840Z,24.33
2018-03-22T02:16:07.687Z,26.00
2018-03-22T02:18:35.225Z,27.23
2018-03-22T02:21:03.639Z,26.77
2018-03-22T02:23:34.031Z,24.40
2018-03-22T02:26:01.591Z,24.87
2018-03-22T02:28:29.102Z,21.73
2018-03-22T02:30:57.661Z,21.03
2018-03-22T02:33:25.588Z,22.50
2018-03-22T02:35:57.450Z,20.20
2018-03-22T02:38:26.003Z,24.50
2018-03-22T02:40:58.505Z,23.37
2018-03-22T02:43:29.874Z,23.57
2018-03-22T02:45:57.397Z,24.20
2018-03-22T02:48:25.249Z,23.13
2018-03-22T02:50:54.130Z,23.80
2018-03-22T02:53:21.653Z,24.27
2018-03-22T02:55:49.162Z,29.90
2018-03-22T02:58:17.635Z,26.77
2018-03-22T03:00:45.933Z,25.90
2018-03-22T03:03:14.027Z,28.77
2018-03-22T03:05:41.602Z,23.40
2018-03-22T03:08:09.163Z,22.77
2018-03-22T03:10:36.788Z,23.50
2018-03-22T03:13:04.374Z,25.57
2018-03-22T03:15:32.028Z,28.87
2018-03-22T03:17:59.620Z,23.90
2018-03-22T03:20:27.177Z,22.70
2018-03-22T03:22:55.333Z,23.57
2018-03-22T03:25:26.893Z,22.73
2018-03-22T03:27:54.414Z,22.57
2018-03-22T03:30:24.196Z,21.90
2018-03-22T03:32:51.838Z,23.23
2018-03-22T03:35:19.369Z,20.10
2018-03-22T03:37:47.278Z,27.60
2018-03-22T03:40:14.848Z,23.80
2018-03-22T03:42:42.362Z,26.03
2018-03-22T03:45:10.641Z,25.10
2018-03-22T03:47:38.174Z,28.13
2018-03-22T03:50:09.135Z,32.37
2018-03-22T03:52:36.661Z,32.87
2018-03-22T03:55:05.770Z,34.30
2018-03-22T03:57:33.292Z,36.63
2018-03-22T04:00:00.808Z,32.97
2018-03-22T04:02:28.331Z,36.13
2018-03-22T04:04:56.609Z,37.50
2018-03-22T04:07:24.884Z,39.17
2018-03-22T04:09:53.183Z,38.43
2018-03-22T04:12:20.713Z,37.03
2018-03-22T04:14:48.898Z,37.33
2018-03-22T04:17:17.178Z,42.63
2018-03-22T04:19:49.378Z,40.87
2018-03-22T04:22:18.025Z,38.47
2018-03-22T04:24:50.640Z,39.37
2018-03-22T04:27:18.776Z,42.37
2018-03-22T04:29:47.124Z,39.27
2018-03-22T04:32:15.349Z,44.23
2018-03-22T04:34:43.613Z,39.87
2018-03-22T04:37:11.901Z,38.20
2018-03-22T04:39:40.198Z,42.93
2018-03-22T04:42:07.721Z,41.03
2018-03-22T04:44:36.025Z,41.13
2018-03-22T04:47:04.464Z,39.37
2018-03-22T04:49:31.985Z,39.83
2018-03-22T04:52:03.526Z,41.33
2018-03-22T04:54:34.954Z,43.33
2018-03-22T04:57:03.234Z,45.07
2018-03-22T04:59:31.709Z,44.10
2018-03-22T05:02:00.814Z,52.80
2018-03-22T05:04:29.447Z,55.10
2018-03-22T05:07:01.344Z,44.77
2018-03-22T05:09:28.879Z,51.43
2018-03-22T05:11:56.511Z,50.53
2018-03-22T05:14:24.037Z,51.40
2018-03-22T05:16:53.027Z,53.63
2018-03-22T05:19:21.335Z,53.20
2018-03-22T05:21:48.879Z,51.57
2018-03-22T05:24:17.339Z,50.77
2018-03-22T05:26:46.210Z,47.90
2018-03-22T05:29:13.770Z,51.23
2018-03-22T05:31:41.294Z,50.47
2018-03-22T05:34:08.821Z,49.47
2018-03-22T05:36:36.338Z,49.57
2018-03-22T05:39:03.861Z,48.97
2018-03-22T05:41:31.386Z,52.80
2018-03-22T05:43:59.660Z,53.23
2018-03-22T05:46:27.964Z,47.80
2018-03-22T05:48:55.502Z,52.77
2018-03-22T05:51:23.800Z,49.57
2018-03-22T05:53:51.354Z,50.23
2018-03-22T05:56:18.860Z,49.00
2018-03-22T05:58:46.378Z,53.87
2018-03-22T06:01:14.855Z,52.70
2018-03-22T06:03:42.389Z,55.10
2018-03-22T06:06:10.682Z,49.50
2018-03-22T06:08:38.216Z,50.63
2018-03-22T06:11:05.747Z,49.17
2018-03-22T06:13:33.269Z,50.60
2018-03-22T06:16:05.257Z,48.67
2018-03-22T06:18:32.778Z,47.03
2018-03-22T06:21:01.073Z,47.63
2018-03-22T06:23:28.601Z,49.80
2018-03-22T06:25:56.112Z,50.60
2018-03-22T06:28:23.650Z,46.33
2018-03-22T06:30:51.614Z,51.43
2018-03-22T06:33:23.737Z,51.57
2018-03-22T06:35:51.257Z,59.73
2018-03-22T06:38:18.782Z,54.33
2018-03-22T06:40:47.094Z,47.30
2018-03-22T06:43:15.411Z,48.47
2018-03-22T06:45:42.931Z,48.50
2018-03-22T06:48:10.432Z,50.30
2018-03-22T06:50:37.977Z,48.93
2018-03-22T06:53:09.277Z,45.80
2018-03-22T06:55:41.696Z,45.53
2018-03-22T06:58:09.746Z,39.93
2018-03-22T07:00:37.960Z,43.07
2018-03-22T07:03:05.954Z,42.60
2018-03-22T07:05:34.255Z,40.23
2018-03-22T07:08:05.750Z,42.07
2018-03-22T07:10:33.700Z,36.47
2018-03-22T07:13:01.229Z,35.23
2018-03-22T07:15:29.936Z,31.50
2018-03-22T07:18:01.577Z,30.80
2018-03-22T07:20:29.102Z,30.60
2018-03-22T07:22:56.616Z,28.33
2018-03-22T07:25:24.741Z,27.30
2018-03-22T07:27:53.500Z,29.23
2018-03-22T07:30:21.002Z,24.73
2018-03-22T07:32:50.271Z,23.60
2018-03-22T07:35:20.865Z,20.67
2018-03-22T07:37:48.390Z,20.43
2018-03-22T07:40:16.680Z,18.40
2018-03-22T07:45:45.689Z,16.70
2018-03-22T07:48:18.449Z,17.57
2018-03-22T07:50:46.263Z,15.73
2018-03-22T07:53:15.468Z,18.63
2018-03-22T07:55:42.995Z,15.47
2018-03-22T07:58:11.289Z,14.93
2018-03-22T08:00:38.829Z,13.83
2018-03-22T08:03:07.140Z,14.00
2018-03-22T08:05:34.660Z,13.87
2018-03-22T08:08:03.652Z,13.23
2018-03-22T08:10:31.975Z,14.17
2018-03-22T08:12:59.851Z,14.50
2018-03-22T08:15:32.501Z,14.90
2018-03-22T08:18:00.057Z,15.00
2018-03-22T08:20:27.595Z,14.77
2018-03-22T08:22:55.884Z,14.97
2018-03-22T08:38:32.580Z,19.73
2018-03-22T08:41:00.105Z,20.40
2018-03-22T08:43:28.522Z,20.00
2018-03-22T08:45:56.898Z,21.50
2018-03-22T08:48:24.410Z,23.07
2018-03-22T08:50:52.731Z,24.03
2018-03-22T08:53:20.257Z,22.90
2018-03-22T08:55:50.469Z,23.03
2018-03-22T08:58:18.757Z,25.73
2018-03-22T09:00:51.046Z,24.03
2018-03-22T09:03:19.219Z,23.83
2018-03-22T09:05:46.754Z,23.53
2018-03-22T09:08:15.182Z,25.03
2018-03-22T09:10:43.034Z,22.97
2018-03-22T09:13:10.668Z,22.20
2018-03-22T09:15:38.954Z,23.00
2018-03-22T09:18:07.802Z,22.90
2018-03-22T09:20:36.327Z,21.73
2018-03-22T09:23:08.929Z,23.57
2018-03-22T09:25:41.108Z,22.63
2018-03-22T09:28:09.442Z,23.27
2018-03-22T09:30:37.888Z,21.40
2018-03-22T09:33:09.925Z,22.70
2018-03-22T09:35:37.433Z,21.17
2018-03-22T09:38:05.543Z,20.67
2018-03-22T09:40:33.065Z,22.30
2018-03-22T09:43:00.696Z,19.43
2018-03-22T09:45:32.955Z,18.73
2018-03-22T09:48:01.324Z,19.57
2018-03-22T09:50:31.476Z,18.67
2018-03-22T09:52:59.017Z,19.03
2018-03-22T09:55:26.913Z,18.43
2018-03-22T09:57:54.449Z,16.50
2018-03-22T10:00:23.115Z,17.70
2018-03-22T10:02:50.662Z,17.40
2018-03-22T10:05:18.193Z,16.90
2018-03-22T10:07:49.306Z,18.90
2018-03-22T10:10:17.164Z,17.83
2018-03-22T10:12:45.468Z,17.80
2018-03-22T10:15:13.346Z,19.13
2018-03-22T10:17:40.890Z,17.63
2018-03-22T10:20:08.861Z,17.87
2018-03-22T10:22:36.377Z,16.17
2018-03-22T10:25:04.674Z,16.50
2018-03-22T10:27:32.232Z,15.13
2018-03-22T10:30:00.500Z,15.03
2018-03-22T10:32:28.717Z,15.77
2018-03-22T10:34:56.222Z,15.87
2018-03-22T10:37:23.746Z,15.27
2018-03-22T10:39:58.207Z,14.30
2018-03-22T10:42:25.756Z,16.57
2018-03-22T10:44:53.288Z,13.20
2018-03-22T10:47:21.821Z,12.90
2018-03-22T10:49:53.237Z,13.70
2018-03-22T10:52:21.525Z,14.07
2018-03-22T10:54:49.365Z,13.63
2018-03-22T10:57:18.696Z,14.43
2018-03-22T10:59:46.229Z,13.10
2018-03-22T11:02:30.121Z,13.57
2018-03-22T11:04:57.666Z,14.03
2018-03-22T11:07:25.191Z,15.40
2018-03-22T11:09:54.404Z,14.90
2018-03-22T11:12:26.640Z,15.00
2018-03-22T11:14:54.626Z,14.47
2018-03-22T11:17:22.925Z,15.57
2018-03-22T11:19:50.495Z,15.57
2018-03-22T11:22:19.764Z,15.50
2018-03-22T11:24:49.086Z,15.57
2018-03-22T11:27:16.623Z,15.53
2018-03-22T11:29:44.929Z,14.70
2018-03-22T11:32:12.591Z,15.57
2018-03-22T11:34:40.219Z,14.33
2018-03-22T11:37:07.758Z,15.40
2018-03-22T11:39:35.366Z,15.00
2018-03-22T11:42:07.773Z,14.77
2018-03-22T11:44:35.304Z,15.23
2018-03-22T11:47:04.078Z,17.13
2018-03-22T11:49:32.362Z,15.53
2018-03-22T11:52:00.651Z,13.90
2018-03-22T11:54:28.169Z,15.87
2018-03-22T11:56:56.524Z,14.50
2018-03-22T11:59:24.038Z,15.30
2018-03-22T12:01:52.513Z,14.00
2018-03-22T12:04:20.068Z,14.33
2018-03-22T12:06:48.929Z,14.10
2018-03-22T12:09:16.456Z,14.77
2018-03-22T12:11:44.847Z,13.73
2018-03-22T12:14:12.356Z,13.77
2018-03-22T12:16:40.644Z,15.67
2018-03-22T12:19:09.572Z,13.23
2018-03-22T12:21:41.219Z,14.47
2018-03-22T12:24:09.494Z,13.50
2018-03-22T12:26:37.031Z,15.80
2018-03-22T12:29:04.557Z,13.50
2018-03-22T12:31:33.012Z,16.03
2018-03-22T12:34:00.537Z,13.60
2018-03-22T12:36:29.001Z,14.70
2018-03-22T12:48:42.343Z,16.30
2018-03-22T12:51:10.382Z,15.83
2018-03-22T12:53:38.707Z,16.00
2018-03-22T12:56:06.387Z,15.73
2018-03-22T12:58:37.931Z,17.23
2018-03-22T13:01:06.148Z,15.13
2018-03-22T13:03:33.662Z,16.13
2018-03-22T13:06:03.918Z,18.17
2018-03-22T13:08:34.316Z,16.13
2018-03-22T13:11:01.881Z,17.43
2018-03-22T13:13:29.404Z,17.03
2018-03-22T13:15:56.922Z,14.67
2018-03-22T13:18:25.224Z,16.23
2018-03-22T13:20:52.731Z,15.20
2018-03-22T13:23:20.294Z,15.67
2018-03-22T13:25:48.655Z,14.53
2018-03-22T13:28:23.970Z,13.63
2018-03-22T13:30:55.534Z,14.30
2018-03-22T13:33:23.956Z,21.93
2018-03-22T13:35:51.529Z,17.13
2018-03-22T13:38:20.535Z,17.27
2018-03-22T13:40:53.324Z,15.33
2018-03-22T13:43:20.910Z,16.13
2018-03-22T13:45:52.650Z,13.10
2018-03-22T13:48:20.105Z,13.37
2018-03-22T13:50:47.703Z,16.83
2018-03-22T13:53:15.956Z,15.57
2018-03-22T13:55:44.458Z,13.57
2018-03-22T13:58:12.009Z,16.37
2018-03-22T14:00:39.683Z,15.03
2018-03-22T14:03:07.345Z,13.87
2018-03-22T14:05:34.858Z,12.77
2018-03-22T14:08:03.383Z,14.73
2018-03-22T14:10:31.867Z,14.10
2018-03-22T14:12:59.392Z,14.40
2018-03-22T14:15:26.917Z,14.53
2018-03-22T14:17:55.259Z,14.23
2018-03-22T14:20:22.799Z,13.60
2018-03-22T14:35:56.769Z,15.13
2018-03-22T14:38:25.083Z,15.37
2018-03-22T14:40:52.613Z,16.27
2018-03-22T14:43:20.917Z,16.40
2018-03-22T14:45:48.455Z,14.70
2018-03-22T14:48:16.039Z,16.00
2018-03-22T14:50:47.721Z,14.33
2018-03-22T14:53:15.256Z,14.30
2018-03-22T14:55:43.448Z,17.70
2018-03-22T14:58:11.034Z,14.47
2018-03-22T15:00:42.804Z,13.20
2018-03-22T15:03:10.370Z,13.40
2018-03-22T15:05:39.249Z,12.57
2018-03-22T15:08:13.880Z,13.70
2018-03-22T15:10:41.514Z,12.50
2018-03-22T15:13:09.029Z,14.70
2018-03-22T15:15:36.553Z,12.47
2018-03-22T15:18:04.081Z,13.60
2018-03-22T15:20:31.593Z,13.27
2018-03-22T15:23:03.750Z,15.77
2018-03-22T15:25:31.576Z,13.03
2018-03-22T15:27:59.143Z,12.23
2018-03-22T15:30:27.092Z,13.50
2018-03-22T15:32:56.393Z,14.13
2018-03-22T15:35:23.954Z,14.03
2018-03-22T15:37:51.490Z,12.53
2018-03-22T15:40:23.417Z,12.67
2018-03-22T15:42:56.351Z,12.70
2018-03-22T15:45:23.894Z,12.87
2018-03-22T15:47:52.306Z,12.70
2018-03-22T15:50:19.847Z,11.13
2018-03-22T15:52:47.657Z,11.70
2018-03-22T15:55:15.592Z,12.80
2018-03-22T15:57:43.122Z,10.43
2018-03-22T16:00:11.846Z,11.47
2018-03-22T16:02:39.332Z,10.37
2018-03-22T16:05:06.862Z,10.83
2018-03-22T16:07:35.162Z,10.77
2018-03-22T16:10:02.703Z,9.27
2018-03-22T16:12:30.263Z,8.23
2018-03-22T16:14:57.799Z,8.23
2018-03-22T16:17:29.345Z,7.57
2018-03-22T16:19:56.904Z,8.90
2018-03-22T16:22:24.732Z,6.97
2018-03-22T16:24:52.274Z,8.40
2018-03-22T16:27:20.128Z,7.07
2018-03-22T16:29:51.820Z,5.77
2018-03-22T16:32:19.765Z,7.53
2018-03-22T16:34:47.413Z,6.57
2018-03-22T16:37:18.836Z,6.20
2018-03-22T16:39:47.118Z,5.53
2018-03-22T16:42:15.740Z,6.20
2018-03-22T16:44:47.236Z,5.93
2018-03-22T16:47:15.628Z,5.07
2018-03-22T16:49:43.159Z,4.73
2018-03-22T16:52:11.021Z,5.77
2018-03-22T16:54:39.221Z,5.27
2018-03-22T16:57:08.212Z,5.63
2018-03-22T16:59:36.538Z,5.73
2018-03-22T17:02:04.127Z,6.07
2018-03-22T17:04:31.678Z,5.50
2018-03-22T17:07:03.404Z,5.80
2018-03-22T17:09:30.927Z,5.07
2018-03-22T17:11:59.606Z,7.30
2018-03-22T17:14:27.885Z,6.63
2018-03-22T17:16:56.039Z,7.60
2018-03-22T17:19:23.596Z,5.57
2018-03-22T17:21:55.884Z,5.37
2018-03-22T17:24:23.410Z,5.93
2018-03-22T17:26:51.198Z,6.43
2018-03-22T17:29:18.772Z,8.53
2018-03-22T17:31:46.789Z,7.63
2018-03-22T17:34:14.348Z,5.97
2018-03-22T17:36:45.643Z,5.33
2018-03-22T17:39:13.182Z,5.30
2018-03-22T17:41:40.740Z,5.00
2018-03-22T17:44:08.298Z,5.80
2018-03-22T17:46:36.810Z,6.17
2018-03-22T17:49:05.134Z,5.93
2018-03-22T17:51:33.231Z,6.37
2018-03-22T17:54:00.766Z,6.17
2018-03-22T17:56:28.860Z,5.23
2018-03-22T17:58:56.982Z,4.90
2018-03-22T18:01:25.262Z,5.87
2018-03-22T18:03:54.506Z,5.53
2018-03-22T18:06:22.046Z,6.43
2018-03-22T18:08:49.614Z,6.67
2018-03-22T18:11:17.174Z,6.63
2018-03-22T18:13:44.846Z,7.77
2018-03-22T18:16:16.192Z,5.80
2018-03-22T18:18:43.827Z,5.93
2018-03-22T18:21:12.250Z,5.93
2018-03-22T18:23:39.809Z,5.83
2018-03-22T18:26:07.410Z,6.03
2018-03-22T18:28:35.745Z,5.27
2018-03-22T18:31:03.594Z,7.93
2018-03-22T18:33:31.243Z,7.07
2018-03-22T18:35:58.834Z,6.67
2018-03-22T18:38:27.195Z,6.70
2018-03-22T18:40:54.819Z,20.67
2018-03-22T18:43:22.398Z,8.63
2018-03-22T18:45:50.025Z,9.07
2018-03-22T18:48:18.613Z,7.97
2018-03-22T18:50:46.324Z,7.63
2018-03-22T18:53:20.823Z,7.53
2018-03-22T18:55:48.422Z,8.27
2018-03-22T18:58:16.018Z,9.00
2018-03-22T19:00:43.644Z,8.13
2018-03-22T19:03:12.710Z,8.60
2018-03-22T19:05:40.774Z,10.00
2018-03-22T19:08:09.025Z,8.30
2018-03-22T19:10:36.724Z,8.37
2018-03-22T19:13:05.129Z,10.37
2018-03-22T19:15:32.763Z,11.87
2018-03-22T19:18:00.547Z,14.63
2018-03-22T19:20:28.180Z,16.03
2018-03-22T19:22:56.274Z,16.93
2018-03-22T19:25:23.928Z,15.93
2018-03-22T19:27:51.486Z,16.20
2018-03-22T19:30:23.271Z,16.03
2018-03-22T19:32:50.815Z,16.20
2018-03-22T19:35:18.692Z,17.10
2018-03-22T19:37:46.354Z,17.20
2018-03-22T19:40:13.899Z,16.33
2018-03-22T19:42:41.418Z,16.53
2018-03-22T19:45:08.943Z,15.97
2018-03-22T19:47:40.328Z,15.50
2018-03-22T19:50:07.837Z,16.03
2018-03-22T19:52:36.320Z,17.13
2018-03-22T19:55:04.072Z,19.80
2018-03-22T19:57:31.604Z,18.27
2018-03-22T19:59:59.917Z,22.03
2018-03-22T20:02:31.342Z,19.70
2018-03-22T20:04:59.673Z,18.60
2018-03-22T20:07:27.192Z,18.43
2018-03-22T20:22:54.769Z,17.57
2018-03-22T20:25:22.383Z,19.03
2018-03-22T20:27:50.695Z,18.10
2018-03-22T20:30:18.496Z,15.27
2018-03-22T20:32:46.646Z,19.10
2018-03-22T20:35:14.204Z,19.40
2018-03-22T20:37:41.771Z,16.83
2018-03-22T20:40:14.320Z,20.20
2018-03-22T20:42:42.134Z,17.47
2018-03-22T20:45:09.669Z,17.20
2018-03-22T20:47:37.951Z,17.97
2018-03-22T20:50:05.493Z,17.93
2018-03-22T20:52:33.316Z,17.60
2018-03-22T20:55:02.577Z,17.50
2018-03-22T20:57:31.122Z,17.67
2018-03-22T20:59:59.437Z,19.70
2018-03-22T21:02:26.975Z,18.30
2018-03-22T21:04:54.502Z,17.10
2018-03-22T21:07:22.067Z,20.17
2018-03-22T21:09:50.353Z,18.13
2018-03-22T21:12:17.907Z,19.93
2018-03-22T21:14:46.238Z,17.23
2018-03-22T21:17:17.687Z,20.37
2018-03-22T21:19:45.215Z,18.50
2018-03-22T21:22:12.745Z,19.80
2018-03-22T21:24:41.594Z,18.53
2018-03-22T21:27:09.120Z,18.60
2018-03-22T21:29:37.430Z,21.63
2018-03-22T21:32:04.955Z,20.60
2018-03-22T21:34:33.239Z,21.53
2018-03-22T21:37:02.226Z,22.13
2018-03-22T21:39:29.744Z,23.83
2018-03-22T21:42:07.210Z,19.80
2018-03-22T21:44:34.742Z,17.97
2018-03-22T21:47:14.139Z,23.13
2018-03-22T21:49:45.489Z,21.70
2018-03-22T21:52:24.812Z,20.17
2018-03-22T21:54:52.369Z,21.23
2018-03-22T21:57:21.097Z,21.37
2018-03-22T21:59:49.991Z,24.57
2018-03-22T22:02:17.504Z,24.03
2018-03-22T22:04:45.055Z,27.40
2018-03-22T22:07:13.434Z,24.17
2018-03-22T22:09:40.943Z,23.10
2018-03-22T22:12:09.247Z,26.03
2018-03-22T22:14:36.767Z,27.97
2018-03-22T22:17:05.052Z,25.90
2018-03-22T22:19:33.667Z,26.00
2018-03-22T22:22:01.194Z,24.97
2018-03-22T22:24:29.478Z,25.07
2018-03-22T22:27:02.262Z,23.80
2018-03-22T22:29:30.034Z,24.70
2018-03-22T22:31:57.549Z,24.03
2018-03-22T22:34:25.077Z,24.27
2018-03-22T22:36:53.423Z,24.70
2018-03-22T22:39:21.710Z,25.87
2018-03-22T22:41:49.230Z,26.93
2018-03-22T22:44:16.781Z,25.17
2018-03-22T22:46:44.299Z,27.77
2018-03-22T22:49:11.810Z,26.40
2018-03-22T22:51:40.706Z,27.07
2018-03-22T22:54:08.734Z,26.47
2018-03-22T22:56:37.115Z,24.70
2018-03-22T22:59:04.682Z,30.03
2018-03-22T23:01:32.594Z,24.43
2018-03-22T23:04:04.738Z,25.30
2018-03-22T23:06:32.677Z,25.17
2018-03-22T23:09:00.177Z,23.90
2018-03-22T23:11:27.775Z,25.47
2018-03-22T23:13:56.129Z,25.87
2018-03-22T23:16:24.420Z,23.33
2018-03-22T23:18:52.699Z,23.97
2018-03-22T23:21:20.998Z,23.93
2018-03-22T23:23:48.797Z,24.70
2018-03-22T23:26:16.303Z,24.67
2018-03-22T23:28:43.838Z,22.90
2018-03-22T23:31:11.370Z,20.93
2018-03-22T23:33:38.885Z,23.10
2018-03-22T23:36:06.405Z,22.80
2018-03-22T23:38:33.935Z,24.87
2018-03-22T23:41:01.504Z,22.93
2018-03-22T23:43:29.167Z,21.70
2018-03-22T23:45:56.723Z,19.33
2018-03-22T23:48:24.619Z,21.17
2018-03-22T23:50:52.135Z,20.90
2018-03-22T23:53:19.652Z,21.97
2018-03-22T23:55:47.926Z,21.27
2018-03-22T23:58:16.214Z,22.00
